sensor_id;sensor_type;location;lat;lon;timestamp;pressure;altitude;pressure_sealevel;temperature;humidity
69751;BME280;57335;52.288;6.056;2023-02-16T00:02:08;102366.44;;;5.68;89.75
69751;BME280;57335;52.288;6.056;2023-02-16T00:04:42;102361.94;;;5.70;89.34
69751;BME280;57335;52.288;6.056;2023-02-16T00:07:08;102361.25;;;5.68;89.42
69751;BME280;57335;52.288;6.056;2023-02-16T00:09:40;102360.31;;;5.69;89.42
69751;BME280;57335;52.288;6.056;2023-02-16T00:12:13;102363.72;;;5.79;89.36
69751;BME280;57335;52.288;6.056;2023-02-16T00:14:48;102356.88;;;5.78;89.27
69751;BME280;57335;52.288;6.056;2023-02-16T00:17:14;102370.97;;;5.86;89.04
69751;BME280;57335;52.288;6.056;2023-02-16T00:19:46;102365.09;;;5.84;88.71
69751;BME280;57335;52.288;6.056;2023-02-16T00:22:13;102368.63;;;5.83;89.32
69751;BME280;57335;52.288;6.056;2023-02-16T00:24:46;102370.97;;;5.86;88.82
69751;BME280;57335;52.288;6.056;2023-02-16T00:27:14;102364.00;;;5.86;88.87
69751;BME280;57335;52.288;6.056;2023-02-16T00:29:41;102365.78;;;5.86;88.89
69751;BME280;57335;52.288;6.056;2023-02-16T00:32:13;102355.22;;;5.77;88.96
69751;BME280;57335;52.288;6.056;2023-02-16T00:34:40;102354.00;;;5.82;89.05
69751;BME280;57335;52.288;6.056;2023-02-16T00:37:14;102342.63;;;5.73;89.00
69751;BME280;57335;52.288;6.056;2023-02-16T00:39:41;102348.66;;;5.73;88.89
69751;BME280;57335;52.288;6.056;2023-02-16T00:42:16;102354.56;;;5.75;89.31
69751;BME280;57335;52.288;6.056;2023-02-16T00:44:51;102349.19;;;5.67;88.99
69751;BME280;57335;52.288;6.056;2023-02-16T00:50:00;102347.44;;;5.68;89.10
69751;BME280;57335;52.288;6.056;2023-02-16T00:52:31;102356.47;;;5.64;89.53
69751;BME280;57335;52.288;6.056;2023-02-16T00:55:13;102335.50;;;5.55;89.78
69751;BME280;57335;52.288;6.056;2023-02-16T00:57:43;102353.00;;;5.63;89.76
69751;BME280;57335;52.288;6.056;2023-02-16T01:00:22;102344.53;;;5.61;90.08
69751;BME280;57335;52.288;6.056;2023-02-16T01:02:49;102356.03;;;5.58;90.61
69751;BME280;57335;52.288;6.056;2023-02-16T01:05:17;102352.75;;;5.56;90.58
69751;BME280;57335;52.288;6.056;2023-02-16T01:07:50;102340.81;;;5.44;90.74
69751;BME280;57335;52.288;6.056;2023-02-16T01:10:19;102336.84;;;5.40;90.60
69751;BME280;57335;52.288;6.056;2023-02-16T01:12:52;102340.94;;;5.43;91.30
69751;BME280;57335;52.288;6.056;2023-02-16T01:15:21;102335.47;;;5.36;91.37
69751;BME280;57335;52.288;6.056;2023-02-16T01:17:56;102327.00;;;5.34;91.35
69751;BME280;57335;52.288;6.056;2023-02-16T01:20:24;102346.56;;;5.38;91.39
69751;BME280;57335;52.288;6.056;2023-02-16T01:22:50;102345.31;;;5.32;92.03
69751;BME280;57335;52.288;6.056;2023-02-16T01:25:24;102346.81;;;5.25;92.37
69751;BME280;57335;52.288;6.056;2023-02-16T01:27:50;102338.47;;;5.22;92.82
69751;BME280;57335;52.288;6.056;2023-02-16T01:30:19;102346.41;;;5.30;92.61
69751;BME280;57335;52.288;6.056;2023-02-16T01:32:53;102345.72;;;5.28;92.51
69751;BME280;57335;52.288;6.056;2023-02-16T01:35:32;102326.53;;;5.19;92.39
69751;BME280;57335;52.288;6.056;2023-02-16T01:38:04;102345.16;;;5.24;92.80
69751;BME280;57335;52.288;6.056;2023-02-16T01:40:43;102334.22;;;5.20;92.86
69751;BME280;57335;52.288;6.056;2023-02-16T01:45:50;102323.00;;;5.20;93.30
69751;BME280;57335;52.288;6.056;2023-02-16T01:48:29;102320.13;;;5.13;93.07
69751;BME280;57335;52.288;6.056;2023-02-16T01:51:15;102327.22;;;5.11;93.46
69751;BME280;57335;52.288;6.056;2023-02-16T01:53:59;102314.91;;;5.04;93.26
69751;BME280;57335;52.288;6.056;2023-02-16T01:56:39;102319.66;;;4.98;93.58
69751;BME280;57335;52.288;6.056;2023-02-16T01:59:59;102312.13;;;4.95;93.76
69751;BME280;57335;52.288;6.056;2023-02-16T02:02:33;102315.28;;;4.99;93.94
69751;BME280;57335;52.288;6.056;2023-02-16T02:05:24;102320.75;;;4.96;94.27
69751;BME280;57335;52.288;6.056;2023-02-16T02:10:59;102302.69;;;4.94;94.84
69751;BME280;57335;52.288;6.056;2023-02-16T02:13:33;102300.78;;;4.96;95.17
69751;BME280;57335;52.288;6.056;2023-02-16T02:16:10;102285.03;;;4.88;95.08
69751;BME280;57335;52.288;6.056;2023-02-16T02:18:43;102284.63;;;4.83;94.86
69751;BME280;57335;52.288;6.056;2023-02-16T02:26:38;102301.59;;;4.87;95.11
69751;BME280;57335;52.288;6.056;2023-02-16T02:29:51;102297.34;;;4.86;95.46
69751;BME280;57335;52.288;6.056;2023-02-16T02:38:22;102288.41;;;4.79;96.29
69751;BME280;57335;52.288;6.056;2023-02-16T02:43:37;102287.19;;;4.73;96.35
69751;BME280;57335;52.288;6.056;2023-02-16T02:46:24;102280.75;;;4.68;97.42
69751;BME280;57335;52.288;6.056;2023-02-16T02:48:52;102271.84;;;4.70;97.19
69751;BME280;57335;52.288;6.056;2023-02-16T02:51:24;102281.31;;;4.71;98.01
69751;BME280;57335;52.288;6.056;2023-02-16T02:53:52;102286.22;;;4.74;97.57
69751;BME280;57335;52.288;6.056;2023-02-16T02:56:19;102287.72;;;4.77;97.72
69751;BME280;57335;52.288;6.056;2023-02-16T02:58:52;102281.59;;;4.78;97.60
69751;BME280;57335;52.288;6.056;2023-02-16T03:01:29;102276.53;;;4.76;98.22
69751;BME280;57335;52.288;6.056;2023-02-16T03:04:05;102276.41;;;4.78;98.72
69751;BME280;57335;52.288;6.056;2023-02-16T03:06:35;102272.75;;;4.90;98.18
69751;BME280;57335;52.288;6.056;2023-02-16T03:09:11;102240.47;;;4.83;98.05
69751;BME280;57335;52.288;6.056;2023-02-16T03:11:45;102262.09;;;4.93;98.04
69751;BME280;57335;52.288;6.056;2023-02-16T03:14:18;102252.22;;;4.97;98.30
69751;BME280;57335;52.288;6.056;2023-02-16T03:16:57;102252.41;;;5.05;97.77
69751;BME280;57335;52.288;6.056;2023-02-16T03:19:24;102244.63;;;5.05;98.10
69751;BME280;57335;52.288;6.056;2023-02-16T03:21:58;102246.50;;;5.13;97.55
69751;BME280;57335;52.288;6.056;2023-02-16T03:24:32;102255.56;;;5.18;97.14
69751;BME280;57335;52.288;6.056;2023-02-16T03:27:06;102252.16;;;5.28;97.32
69751;BME280;57335;52.288;6.056;2023-02-16T03:29:36;102248.44;;;5.30;96.90
69751;BME280;57335;52.288;6.056;2023-02-16T03:32:09;102249.00;;;5.34;96.93
69751;BME280;57335;52.288;6.056;2023-02-16T03:34:36;102241.22;;;5.34;96.55
69751;BME280;57335;52.288;6.056;2023-02-16T03:37:10;102243.69;;;5.35;96.52
69751;BME280;57335;52.288;6.056;2023-02-16T03:39:37;102235.59;;;5.38;96.15
69751;BME280;57335;52.288;6.056;2023-02-16T03:42:10;102247.34;;;5.43;96.22
69751;BME280;57335;52.288;6.056;2023-02-16T03:44:37;102247.09;;;5.46;95.93
69751;BME280;57335;52.288;6.056;2023-02-16T03:47:09;102244.50;;;5.46;95.78
69751;BME280;57335;52.288;6.056;2023-02-16T03:49:36;102242.56;;;5.48;95.75
69751;BME280;57335;52.288;6.056;2023-02-16T03:52:09;102253.38;;;5.53;95.73
69751;BME280;57335;52.288;6.056;2023-02-16T03:54:35;102246.41;;;5.53;95.51
69751;BME280;57335;52.288;6.056;2023-02-16T03:57:07;102237.78;;;5.53;95.57
69751;BME280;57335;52.288;6.056;2023-02-16T03:59:34;102251.19;;;5.58;95.15
69751;BME280;57335;52.288;6.056;2023-02-16T04:02:06;102243.25;;;5.59;94.94
69751;BME280;57335;52.288;6.056;2023-02-16T04:04:33;102259.38;;;5.63;95.15
69751;BME280;57335;52.288;6.056;2023-02-16T04:07:05;102250.50;;;5.56;95.32
69751;BME280;57335;52.288;6.056;2023-02-16T04:09:32;102251.59;;;5.63;94.99
69751;BME280;57335;52.288;6.056;2023-02-16T04:12:05;102238.06;;;5.59;94.72
69751;BME280;57335;52.288;6.056;2023-02-16T04:14:31;102253.09;;;5.66;94.55
69751;BME280;57335;52.288;6.056;2023-02-16T04:16:58;102250.50;;;5.66;94.65
69751;BME280;57335;52.288;6.056;2023-02-16T04:19:30;102252.94;;;5.67;94.80
69751;BME280;57335;52.288;6.056;2023-02-16T04:21:57;102252.00;;;5.68;94.31
69751;BME280;57335;52.288;6.056;2023-02-16T04:24:29;102243.94;;;5.62;94.62
69751;BME280;57335;52.288;6.056;2023-02-16T04:26:56;102253.38;;;5.72;94.48
69751;BME280;57335;52.288;6.056;2023-02-16T04:29:29;102242.28;;;5.70;94.11
69751;BME280;57335;52.288;6.056;2023-02-16T04:31:55;102252.81;;;5.78;94.53
69751;BME280;57335;52.288;6.056;2023-02-16T04:34:22;102242.16;;;5.72;94.35
69751;BME280;57335;52.288;6.056;2023-02-16T04:36:54;102243.50;;;5.66;94.87
69751;BME280;57335;52.288;6.056;2023-02-16T04:39:27;102252.44;;;5.64;94.05
69751;BME280;57335;52.288;6.056;2023-02-16T04:41:54;102258.44;;;5.64;94.35
69751;BME280;57335;52.288;6.056;2023-02-16T04:44:20;102262.81;;;5.73;93.46
69751;BME280;57335;52.288;6.056;2023-02-16T04:46:53;102255.13;;;5.82;93.73
69751;BME280;57335;52.288;6.056;2023-02-16T04:49:20;102250.63;;;5.84;93.79
69751;BME280;57335;52.288;6.056;2023-02-16T04:51:52;102256.63;;;5.84;93.63
69751;BME280;57335;52.288;6.056;2023-02-16T04:54:26;102256.91;;;5.81;93.07
69751;BME280;57335;52.288;6.056;2023-02-16T04:56:52;102265.00;;;5.88;92.79
69751;BME280;57335;52.288;6.056;2023-02-16T04:59:19;102252.53;;;5.91;92.72
69751;BME280;57335;52.288;6.056;2023-02-16T05:01:51;102253.06;;;5.95;92.66
69751;BME280;57335;52.288;6.056;2023-02-16T05:04:18;102244.31;;;5.96;92.58
69751;BME280;57335;52.288;6.056;2023-02-16T05:06:52;102233.78;;;5.97;92.61
69751;BME280;57335;52.288;6.056;2023-02-16T05:09:25;102215.13;;;5.92;92.94
69751;BME280;57335;52.288;6.056;2023-02-16T05:11:51;102229.53;;;5.96;92.84
69751;BME280;57335;52.288;6.056;2023-02-16T05:14:26;102232.00;;;5.98;92.44
69751;BME280;57335;52.288;6.056;2023-02-16T05:16:52;102247.97;;;6.03;92.77
69751;BME280;57335;52.288;6.056;2023-02-16T05:19:25;102239.78;;;5.98;92.71
69751;BME280;57335;52.288;6.056;2023-02-16T05:21:52;102237.31;;;5.96;91.92
69751;BME280;57335;52.288;6.056;2023-02-16T05:24:18;102236.50;;;5.96;92.48
69751;BME280;57335;52.288;6.056;2023-02-16T05:26:53;102228.41;;;5.99;92.15
69751;BME280;57335;52.288;6.056;2023-02-16T05:29:20;102228.41;;;5.99;92.18
69751;BME280;57335;52.288;6.056;2023-02-16T05:31:46;102231.69;;;6.01;91.87
69751;BME280;57335;52.288;6.056;2023-02-16T05:34:20;102235.28;;;6.00;92.17
69751;BME280;57335;52.288;6.056;2023-02-16T05:36:52;102235.94;;;6.12;91.93
69751;BME280;57335;52.288;6.056;2023-02-16T05:39:19;102225.66;;;6.10;91.94
69751;BME280;57335;52.288;6.056;2023-02-16T05:41:52;102210.31;;;6.07;91.91
69751;BME280;57335;52.288;6.056;2023-02-16T05:44:19;102225.63;;;6.20;91.86
69751;BME280;57335;52.288;6.056;2023-02-16T05:46:45;102226.56;;;6.19;91.33
69751;BME280;57335;52.288;6.056;2023-02-16T05:49:17;102214.53;;;6.18;91.81
69751;BME280;57335;52.288;6.056;2023-02-16T05:51:44;102225.06;;;6.16;91.85
69751;BME280;57335;52.288;6.056;2023-02-16T05:54:11;102216.72;;;6.13;92.13
69751;BME280;57335;52.288;6.056;2023-02-16T05:56:45;102230.28;;;6.16;92.30
69751;BME280;57335;52.288;6.056;2023-02-16T05:59:12;102223.16;;;6.18;92.31
69751;BME280;57335;52.288;6.056;2023-02-16T06:01:46;102200.19;;;6.04;92.30
69751;BME280;57335;52.288;6.056;2023-02-16T06:04:17;102216.59;;;6.14;92.54
69751;BME280;57335;52.288;6.056;2023-02-16T06:06:50;102208.91;;;6.13;91.82
69751;BME280;57335;52.288;6.056;2023-02-16T06:09:17;102195.38;;;6.09;92.34
69751;BME280;57335;52.288;6.056;2023-02-16T06:11:49;102205.34;;;6.24;92.38
69751;BME280;57335;52.288;6.056;2023-02-16T06:14:16;102206.81;;;6.26;92.70
69751;BME280;57335;52.288;6.056;2023-02-16T06:16:50;102203.97;;;6.19;93.49
69751;BME280;57335;52.288;6.056;2023-02-16T06:19:17;102210.31;;;6.07;94.10
69751;BME280;57335;52.288;6.056;2023-02-16T06:21:44;102220.16;;;6.13;94.03
69751;BME280;57335;52.288;6.056;2023-02-16T06:24:17;102227.97;;;6.13;94.13
69751;BME280;57335;52.288;6.056;2023-02-16T06:26:50;102226.47;;;6.11;94.50
69751;BME280;57335;52.288;6.056;2023-02-16T06:29:44;102213.34;;;5.93;94.77
69751;BME280;57335;52.288;6.056;2023-02-16T06:32:38;102233.34;;;6.02;94.67
69751;BME280;57335;52.288;6.056;2023-02-16T06:35:32;102236.63;;;6.04;94.57
69751;BME280;57335;52.288;6.056;2023-02-16T06:38:04;102221.28;;;6.01;94.69
69751;BME280;57335;52.288;6.056;2023-02-16T06:40:37;102234.16;;;6.03;94.23
69751;BME280;57335;52.288;6.056;2023-02-16T06:43:04;102234.03;;;6.04;94.20
69751;BME280;57335;52.288;6.056;2023-02-16T06:45:36;102242.50;;;6.06;94.37
69751;BME280;57335;52.288;6.056;2023-02-16T06:48:03;102241.69;;;6.06;94.08
69751;BME280;57335;52.288;6.056;2023-02-16T06:50:36;102241.13;;;6.12;94.06
69751;BME280;57335;52.288;6.056;2023-02-16T06:53:08;102227.84;;;6.05;93.75
69751;BME280;57335;52.288;6.056;2023-02-16T06:55:41;102225.41;;;6.04;93.48
69751;BME280;57335;52.288;6.056;2023-02-16T06:58:08;102234.41;;;6.09;93.25
69751;BME280;57335;52.288;6.056;2023-02-16T07:00:41;102238.66;;;6.10;93.38
69751;BME280;57335;52.288;6.056;2023-02-16T07:03:08;102242.34;;;6.17;93.34
69751;BME280;57335;52.288;6.056;2023-02-16T07:05:34;102237.16;;;6.17;93.02
69751;BME280;57335;52.288;6.056;2023-02-16T07:08:07;102240.00;;;6.24;92.84
69751;BME280;57335;52.288;6.056;2023-02-16T07:10:34;102241.47;;;6.27;92.47
69751;BME280;57335;52.288;6.056;2023-02-16T07:13:15;102240.00;;;6.24;92.77
69751;BME280;57335;52.288;6.056;2023-02-16T07:15:41;102247.81;;;6.24;92.50
69751;BME280;57335;52.288;6.056;2023-02-16T07:18:08;102234.53;;;6.17;92.59
69751;BME280;57335;52.288;6.056;2023-02-16T07:20:34;102237.97;;;6.18;92.68
69751;BME280;57335;52.288;6.056;2023-02-16T07:23:01;102248.91;;;6.22;92.65
69751;BME280;57335;52.288;6.056;2023-02-16T07:25:27;102232.88;;;6.16;92.20
69751;BME280;57335;52.288;6.056;2023-02-16T07:27:53;102240.13;;;6.23;92.56
69751;BME280;57335;52.288;6.056;2023-02-16T07:30:20;102248.03;;;6.31;92.86
69751;BME280;57335;52.288;6.056;2023-02-16T07:32:46;102247.13;;;6.22;92.33
69751;BME280;57335;52.288;6.056;2023-02-16T07:35:13;102237.53;;;6.23;92.83
69751;BME280;57335;52.288;6.056;2023-02-16T07:37:39;102240.94;;;6.23;92.63
69751;BME280;57335;52.288;6.056;2023-02-16T07:40:06;102247.09;;;6.32;92.43
69751;BME280;57335;52.288;6.056;2023-02-16T07:42:33;102250.94;;;6.28;92.42
69751;BME280;57335;52.288;6.056;2023-02-16T07:44:59;102250.38;;;6.34;92.33
69751;BME280;57335;52.288;6.056;2023-02-16T07:47:26;102244.50;;;6.32;92.23
69751;BME280;57335;52.288;6.056;2023-02-16T07:49:52;102259.22;;;6.41;92.74
69751;BME280;57335;52.288;6.056;2023-02-16T07:52:18;102254.47;;;6.36;91.93
69751;BME280;57335;52.288;6.056;2023-02-16T07:54:45;102267.72;;;6.43;92.13
69751;BME280;57335;52.288;6.056;2023-02-16T07:57:11;102251.97;;;6.45;92.10
69751;BME280;57335;52.288;6.056;2023-02-16T07:59:37;102264.84;;;6.46;92.77
69751;BME280;57335;52.288;6.056;2023-02-16T08:02:04;102261.13;;;6.49;93.43
69751;BME280;57335;52.288;6.056;2023-02-16T08:04:30;102274.78;;;6.61;92.63
69751;BME280;57335;52.288;6.056;2023-02-16T08:06:57;102276.72;;;6.58;92.73
69751;BME280;57335;52.288;6.056;2023-02-16T08:09:23;102269.19;;;6.55;92.83
69751;BME280;57335;52.288;6.056;2023-02-16T08:11:49;102255.88;;;6.58;92.86
69751;BME280;57335;52.288;6.056;2023-02-16T08:14:16;102282.59;;;6.61;92.74
69751;BME280;57335;52.288;6.056;2023-02-16T08:16:42;102272.84;;;6.63;92.88
69751;BME280;57335;52.288;6.056;2023-02-16T08:19:08;102268.63;;;6.62;92.84
69751;BME280;57335;52.288;6.056;2023-02-16T08:21:35;102257.00;;;6.56;92.64
69751;BME280;57335;52.288;6.056;2023-02-16T08:24:04;102271.47;;;6.68;92.75
69751;BME280;57335;52.288;6.056;2023-02-16T08:26:35;102275.28;;;6.74;92.78
69751;BME280;57335;52.288;6.056;2023-02-16T08:29:02;102277.31;;;6.80;92.61
69751;BME280;57335;52.288;6.056;2023-02-16T08:31:30;102271.41;;;6.78;92.76
69751;BME280;57335;52.288;6.056;2023-02-16T08:33:58;102286.69;;;6.91;92.33
69751;BME280;57335;52.288;6.056;2023-02-16T08:36:30;102279.59;;;6.83;92.48
69751;BME280;57335;52.288;6.056;2023-02-16T08:38:57;102279.31;;;6.86;92.37
69751;BME280;57335;52.288;6.056;2023-02-16T08:41:28;102300.41;;;6.93;92.65
69751;BME280;57335;52.288;6.056;2023-02-16T08:43:55;102306.44;;;6.93;93.76
69751;BME280;57335;52.288;6.056;2023-02-16T08:46:21;102297.44;;;6.88;93.06
69751;BME280;57335;52.288;6.056;2023-02-16T08:48:48;102301.63;;;6.98;92.80
69751;BME280;57335;52.288;6.056;2023-02-16T08:51:16;102298.03;;;6.99;93.32
69751;BME280;57335;52.288;6.056;2023-02-16T08:53:46;102294.25;;;6.94;92.96
69751;BME280;57335;52.288;6.056;2023-02-16T08:56:14;102304.34;;;6.97;93.04
69751;BME280;57335;52.288;6.056;2023-02-16T08:58:40;102291.09;;;6.90;93.12
69751;BME280;57335;52.288;6.056;2023-02-16T09:01:09;102303.94;;;7.02;93.64
69751;BME280;57335;52.288;6.056;2023-02-16T09:03:37;102300.63;;;6.99;92.94
69751;BME280;57335;52.288;6.056;2023-02-16T09:06:04;102292.13;;;6.97;92.63
69751;BME280;57335;52.288;6.056;2023-02-16T09:08:32;102296.00;;;6.93;92.79
69751;BME280;57335;52.288;6.056;2023-02-16T09:11:15;102296.25;;;7.00;93.01
69751;BME280;57335;52.288;6.056;2023-02-16T09:13:42;102298.03;;;6.99;92.56
69751;BME280;57335;52.288;6.056;2023-02-16T09:16:11;102295.59;;;6.98;92.34
69751;BME280;57335;52.288;6.056;2023-02-16T09:18:38;102309.38;;;7.08;92.66
69751;BME280;57335;52.288;6.056;2023-02-16T09:21:05;102307.72;;;7.07;92.86
69751;BME280;57335;52.288;6.056;2023-02-16T09:23:34;102309.91;;;7.12;92.64
69751;BME280;57335;52.288;6.056;2023-02-16T09:26:01;102306.91;;;7.07;93.32
69751;BME280;57335;52.288;6.056;2023-02-16T09:28:28;102314.16;;;7.13;92.73
69751;BME280;57335;52.288;6.056;2023-02-16T09:30:55;102324.28;;;7.16;93.01
69751;BME280;57335;52.288;6.056;2023-02-16T09:33:21;102310.13;;;7.18;93.20
69751;BME280;57335;52.288;6.056;2023-02-16T09:35:47;102310.94;;;7.19;93.21
69751;BME280;57335;52.288;6.056;2023-02-16T09:38:14;102305.75;;;7.19;93.09
69751;BME280;57335;52.288;6.056;2023-02-16T09:40:40;102314.63;;;7.26;93.07
69751;BME280;57335;52.288;6.056;2023-02-16T09:44:12;102321.41;;;7.37;93.17
69751;BME280;57335;52.288;6.056;2023-02-16T09:46:16;102321.63;;;7.44;92.74
69751;BME280;57335;52.288;6.056;2023-02-16T09:48:47;102325.22;;;7.43;92.77
69751;BME280;57335;52.288;6.056;2023-02-16T09:51:22;102314.09;;;7.41;92.50
69751;BME280;57335;52.288;6.056;2023-02-16T09:56:35;102320.22;;;7.49;92.76
69751;BME280;57335;52.288;6.056;2023-02-16T09:59:51;102331.03;;;7.54;92.84
69751;BME280;57335;52.288;6.056;2023-02-16T10:02:11;102330.66;;;7.49;93.34
69751;BME280;57335;52.288;6.056;2023-02-16T10:04:46;102326.09;;;7.51;93.94
69751;BME280;57335;52.288;6.056;2023-02-16T10:10:06;102312.56;;;7.48;96.22
69751;BME280;57335;52.288;6.056;2023-02-16T10:12:40;102322.41;;;7.54;96.27
69751;BME280;57335;52.288;6.056;2023-02-16T10:15:17;102330.72;;;7.57;98.58
69751;BME280;57335;52.288;6.056;2023-02-16T10:17:48;102301.13;;;7.49;98.35
69751;BME280;57335;52.288;6.056;2023-02-16T10:20:26;102303.81;;;7.57;99.03
69751;BME280;57335;52.288;6.056;2023-02-16T10:22:59;102290.41;;;7.52;98.38
69751;BME280;57335;52.288;6.056;2023-02-16T10:25:39;102289.66;;;7.42;98.48
69751;BME280;57335;52.288;6.056;2023-02-16T10:28:44;102294.88;;;7.42;100.00
69751;BME280;57335;52.288;6.056;2023-02-16T10:41:43;102306.34;;;7.49;100.00
69751;BME280;57335;52.288;6.056;2023-02-16T10:44:21;102308.38;;;7.55;100.00
69751;BME280;57335;52.288;6.056;2023-02-16T10:46:54;102317.53;;;7.59;100.00
69751;BME280;57335;52.288;6.056;2023-02-16T10:49:22;102315.59;;;7.61;100.00
69751;BME280;57335;52.288;6.056;2023-02-16T10:51:52;102309.63;;;7.51;100.00
69751;BME280;57335;52.288;6.056;2023-02-16T10:54:31;102329.31;;;7.63;100.00
69751;BME280;57335;52.288;6.056;2023-02-16T10:57:04;102310.38;;;7.61;100.00
69751;BME280;57335;52.288;6.056;2023-02-16T10:59:45;102278.94;;;7.45;100.00
69751;BME280;57335;52.288;6.056;2023-02-16T11:02:23;102304.19;;;7.44;100.00
69751;BME280;57335;52.288;6.056;2023-02-16T11:04:51;102312.69;;;7.46;100.00
69751;BME280;57335;52.288;6.056;2023-02-16T11:07:26;102309.03;;;7.39;100.00
69751;BME280;57335;52.288;6.056;2023-02-16T11:09:55;102313.50;;;7.47;100.00
69751;BME280;57335;52.288;6.056;2023-02-16T11:12:26;102313.78;;;7.44;100.00
69751;BME280;57335;52.288;6.056;2023-02-16T11:14:56;102311.28;;;7.52;100.00
69751;BME280;57335;52.288;6.056;2023-02-16T11:17:25;102316.78;;;7.49;100.00
69751;BME280;57335;52.288;6.056;2023-02-16T11:19:55;102312.91;;;7.53;100.00
69751;BME280;57335;52.288;6.056;2023-02-16T11:22:33;102318.50;;;7.58;100.00
69751;BME280;57335;52.288;6.056;2023-02-16T11:25:22;102321.47;;;7.63;100.00
69751;BME280;57335;52.288;6.056;2023-02-16T11:27:51;102323.81;;;7.66;100.00
69751;BME280;57335;52.288;6.056;2023-02-16T11:30:27;102320.22;;;7.67;100.00
69751;BME280;57335;52.288;6.056;2023-02-16T11:32:54;102311.72;;;7.65;100.00
69751;BME280;57335;52.288;6.056;2023-02-16T11:35:21;102318.34;;;7.77;100.00
69751;BME280;57335;52.288;6.056;2023-02-16T11:37:47;102310.22;;;7.81;100.00
69751;BME280;57335;52.288;6.056;2023-02-16T11:40:18;102310.22;;;7.81;100.00
69751;BME280;57335;52.288;6.056;2023-02-16T11:42:47;102301.72;;;7.78;100.00
69751;BME280;57335;52.288;6.056;2023-02-16T11:45:32;102302.00;;;7.75;100.00
69751;BME280;57335;52.288;6.056;2023-02-16T11:50:30;102288.25;;;7.91;100.00
69751;BME280;57335;52.288;6.056;2023-02-16T11:53:13;102295.03;;;8.02;100.00
69751;BME280;57335;52.288;6.056;2023-02-16T11:55:46;102280.19;;;8.03;100.00
69751;BME280;57335;52.288;6.056;2023-02-16T11:58:25;102274.44;;;7.99;100.00
69751;BME280;57335;52.288;6.056;2023-02-16T12:04:11;102278.25;;;8.05;100.00
69751;BME280;57335;52.288;6.056;2023-02-16T12:06:58;102250.00;;;8.00;100.00
69751;BME280;57335;52.288;6.056;2023-02-16T12:12:16;102254.97;;;8.19;100.00
69751;BME280;57335;52.288;6.056;2023-02-16T12:14:52;102245.00;;;8.15;100.00
69751;BME280;57335;52.288;6.056;2023-02-16T12:17:36;102232.81;;;8.24;100.00
69751;BME280;57335;52.288;6.056;2023-02-16T12:22:52;102231.63;;;8.44;100.00
69751;BME280;57335;52.288;6.056;2023-02-16T12:25:37;102243.75;;;8.53;100.00
69751;BME280;57335;52.288;6.056;2023-02-16T12:36:32;102224.09;;;8.41;100.00
69751;BME280;57335;52.288;6.056;2023-02-16T12:39:11;102228.91;;;8.54;100.00
69751;BME280;57335;52.288;6.056;2023-02-16T12:41:54;102223.97;;;8.51;100.00
69751;BME280;57335;52.288;6.056;2023-02-16T12:47:04;102209.31;;;8.58;100.00
69751;BME280;57335;52.288;6.056;2023-02-16T12:49:42;102190.38;;;8.64;100.00
69751;BME280;57335;52.288;6.056;2023-02-16T12:52:45;102197.25;;;8.82;100.00
69751;BME280;57335;52.288;6.056;2023-02-16T12:55:27;102195.50;;;8.98;100.00
69751;BME280;57335;52.288;6.056;2023-02-16T12:58:03;102182.94;;;9.10;100.00
69751;BME280;57335;52.288;6.056;2023-02-16T13:00:40;102182.59;;;9.22;100.00
69751;BME280;57335;52.288;6.056;2023-02-16T13:03:16;102179.81;;;9.31;100.00
69751;BME280;57335;52.288;6.056;2023-02-16T13:05:56;102170.66;;;9.35;100.00
69751;BME280;57335;52.288;6.056;2023-02-16T13:08:33;102181.59;;;9.47;100.00
69751;BME280;57335;52.288;6.056;2023-02-16T13:13:35;102164.72;;;9.58;100.00
69751;BME280;57335;52.288;6.056;2023-02-16T13:18:55;102143.16;;;9.64;100.00
69751;BME280;57335;52.288;6.056;2023-02-16T13:21:42;102139.50;;;9.73;100.00
69751;BME280;57335;52.288;6.056;2023-02-16T13:24:45;102137.88;;;9.81;100.00
69751;BME280;57335;52.288;6.056;2023-02-16T13:30:07;102150.44;;;9.85;100.00
69751;BME280;57335;52.288;6.056;2023-02-16T13:46:29;102138.19;;;9.77;100.00
69751;BME280;57335;52.288;6.056;2023-02-16T13:48:58;102125.94;;;9.70;100.00
69751;BME280;57335;52.288;6.056;2023-02-16T13:51:27;102141.44;;;9.79;100.00
69751;BME280;57335;52.288;6.056;2023-02-16T13:54:01;102108.94;;;9.66;100.00
69751;BME280;57335;52.288;6.056;2023-02-16T13:58:56;102114.34;;;9.72;100.00
69751;BME280;57335;52.288;6.056;2023-02-16T14:01:37;102116.75;;;9.74;100.00
69751;BME280;57335;52.288;6.056;2023-02-16T14:04:09;102106.97;;;9.68;100.00
69751;BME280;57335;52.288;6.056;2023-02-16T14:06:39;102094.53;;;9.70;100.00
69751;BME280;57335;52.288;6.056;2023-02-16T14:16:51;102098.09;;;9.77;100.00
69751;BME280;57335;52.288;6.056;2023-02-16T14:19:22;102080.31;;;9.72;100.00
69751;BME280;57335;52.288;6.056;2023-02-16T14:21:49;102079.81;;;9.69;100.00
69751;BME280;57335;52.288;6.056;2023-02-16T14:24:29;102093.03;;;9.75;100.00
69751;BME280;57335;52.288;6.056;2023-02-16T14:26:59;102083.88;;;9.71;100.00
69751;BME280;57335;52.288;6.056;2023-02-16T14:29:39;102076.56;;;9.67;99.69
69751;BME280;57335;52.288;6.056;2023-02-16T14:37:37;102080.84;;;9.51;100.00
69751;BME280;57335;52.288;6.056;2023-02-16T14:40:18;102079.53;;;9.55;100.00
69751;BME280;57335;52.288;6.056;2023-02-16T14:42:57;102073.34;;;9.48;100.00
69751;BME280;57335;52.288;6.056;2023-02-16T14:48:45;102081.34;;;9.55;100.00
69751;BME280;57335;52.288;6.056;2023-02-16T14:54:42;102065.28;;;9.58;100.00
69751;BME280;57335;52.288;6.056;2023-02-16T14:57:32;102066.72;;;9.69;100.00
69751;BME280;57335;52.288;6.056;2023-02-16T15:02:59;102067.38;;;9.71;100.00
69751;BME280;57335;52.288;6.056;2023-02-16T15:05:33;102055.44;;;9.68;100.00
69751;BME280;57335;52.288;6.056;2023-02-16T15:08:08;102066.56;;;9.70;100.00
69751;BME280;57335;52.288;6.056;2023-02-16T15:10:38;102059.84;;;9.68;100.00
69751;BME280;57335;52.288;6.056;2023-02-16T15:13:05;102055.09;;;9.71;99.55